Time;durP1;ratioP1;P1;durP2;ratioP2;P2;SDS_P1;SDS_P2;PMS_P1;PMS_P2;Temp;Humidity;BMP_temperature;BMP_pressure;BME280_temperature;BME280_humidity;BME280_pressure;Samples;Min_cycle;Max_cycle;Signal;HPM_P1;HPM_P2
2021/06/04 00:02:07;;;;;;;3.78;3.47;;;;;;;19.28;65.90;97667.66;5022482;28;20033;-79
2021/06/04 00:04:33;;;;;;;3.47;3.17;;;;;;;19.26;65.89;97667.94;5034662;28;20393;-79
2021/06/04 00:06:58;;;;;;;3.10;2.78;;;;;;;19.22;65.75;97666.94;5038981;28;20076;-79
2021/06/04 00:09:24;;;;;;;3.55;3.30;;;;;;;19.21;65.56;97669.88;5018762;28;20060;-79
2021/06/04 00:11:57;;;;;;;3.90;3.60;;;;;;;19.02;65.34;97662.78;5044518;28;20063;-79
2021/06/04 00:14:33;;;;;;;5.03;4.07;;;;;;;19.11;65.88;97664.75;5034909;28;20039;-79
2021/06/04 00:17:03;;;;;;;3.55;3.25;;;;;;;19.01;66.17;97660.44;5051765;28;20290;-79
2021/06/04 00:19:30;;;;;;;4.22;3.83;;;;;;;19.07;65.88;97672.47;5034968;28;20032;-79
2021/06/04 00:22:23;;;;;;;3.70;3.40;;;;;;;18.96;66.14;97671.06;5050304;28;20514;-79
2021/06/04 00:24:51;;;;;;;3.95;3.65;;;;;;;19.00;66.07;97653.56;5047345;28;20025;-79
2021/06/04 00:27:19;;;;;;;4.43;3.45;;;;;;;19.04;65.92;97667.78;5031608;28;20036;-79
2021/06/04 00:29:47;;;;;;;3.63;3.22;;;;;;;19.03;65.79;97661.69;5044725;28;20032;-79
2021/06/04 00:32:14;;;;;;;3.50;3.20;;;;;;;18.97;66.03;97665.50;5047311;28;20041;-79
2021/06/04 00:34:40;;;;;;;3.40;3.10;;;;;;;18.94;65.83;97660.78;5014737;28;20411;-79
2021/06/04 00:37:06;;;;;;;3.50;3.20;;;;;;;18.87;65.81;97658.50;5033802;28;20115;-79
2021/06/04 00:39:34;;;;;;;3.55;3.25;;;;;;;18.78;65.93;97651.47;5033441;28;20119;-79
2021/06/04 00:42:28;;;;;;;7.78;5.18;;;;;;;18.72;65.95;97654.19;5029355;28;20032;-79
2021/06/04 00:44:57;;;;;;;3.20;3.00;;;;;;;18.74;66.00;97658.41;5046241;28;20044;-79
2021/06/04 00:47:24;;;;;;;3.75;3.45;;;;;;;18.68;66.26;97658.47;5029817;28;20032;-79
2021/06/04 00:49:52;;;;;;;3.40;3.10;;;;;;;18.67;66.64;97653.50;5051219;28;20029;-79
2021/06/04 00:52:21;;;;;;;3.83;3.35;;;;;;;18.56;66.58;97657.31;5031092;28;20081;-79
2021/06/04 00:54:51;;;;;;;3.63;3.33;;;;;;;18.48;66.54;97653.47;5035247;28;20021;-79
2021/06/04 00:57:17;;;;;;;3.70;3.40;;;;;;;18.57;66.49;97651.00;5043574;28;20041;-79
2021/06/04 00:59:44;;;;;;;4.18;3.33;;;;;;;18.59;66.19;97659.41;5021794;28;20106;-79
2021/06/04 01:02:18;;;;;;;4.30;3.90;;;;;;;18.42;66.56;97662.50;5062921;22;20131;-77
2021/06/04 01:04:44;;;;;;;3.90;3.50;;;;;;;18.51;66.38;97656.34;5046320;28;20579;-78
2021/06/04 01:07:16;;;;;;;4.00;3.60;;;;;;;18.47;66.55;97657.97;5046769;28;20036;-78
2021/06/04 01:10:05;;;;;;;3.70;3.40;;;;;;;18.40;66.46;97657.50;5049652;28;20096;-77
2021/06/04 01:12:51;;;;;;;4.22;3.83;;;;;;;18.24;67.26;97650.88;5024186;28;20566;-78
2021/06/04 01:15:38;;;;;;;3.78;3.47;;;;;;;18.28;67.02;97665.84;5047587;28;20068;-78
2021/06/04 01:18:07;;;;;;;3.95;3.60;;;;;;;18.40;66.34;97662.00;5052058;28;20470;-78
2021/06/04 01:20:37;;;;;;;3.70;3.40;;;;;;;18.27;66.17;97658.22;5053771;28;20125;-77
2021/06/04 01:23:22;;;;;;;4.10;3.78;;;;;;;18.08;66.64;97660.81;5053776;28;20040;-78
2021/06/04 01:25:58;;;;;;;4.20;3.80;;;;;;;18.07;66.90;97662.66;5064494;28;20029;-78
2021/06/04 01:28:39;;;;;;;4.35;3.95;;;;;;;18.05;67.15;97664.78;5036945;28;20024;-78
2021/06/04 01:31:12;;;;;;;3.50;3.15;;;;;;;18.14;66.69;97659.69;5007633;28;20113;-77
2021/06/04 01:33:51;;;;;;;4.18;3.47;;;;;;;18.09;66.41;97665.78;5024856;28;20048;-78
2021/06/04 01:36:19;;;;;;;3.78;3.47;;;;;;;18.21;66.46;97660.13;5032503;28;20405;-77
2021/06/04 01:38:46;;;;;;;5.57;4.22;;;;;;;18.20;67.02;97666.47;5049640;28;20024;-77
2021/06/04 01:41:13;;;;;;;4.10;3.70;;;;;;;18.13;67.10;97653.63;5014332;28;20044;-77
2021/06/04 01:43:43;;;;;;;3.80;3.40;;;;;;;18.10;66.98;97659.47;5032550;28;20083;-77
2021/06/04 01:46:14;;;;;;;2.90;2.60;;;;;;;18.11;66.78;97666.31;5069031;28;20040;-77
2021/06/04 01:48:43;;;;;;;4.10;3.80;;;;;;;18.06;66.98;97661.09;5052233;28;20020;-77
2021/06/04 01:51:20;;;;;;;3.50;3.20;;;;;;;18.00;67.00;97664.06;5035420;28;20036;-78
2021/06/04 01:53:56;;;;;;;3.92;3.50;;;;;;;18.15;65.92;97674.44;5034291;28;20029;-78
2021/06/04 01:56:26;;;;;;;3.30;3.00;;;;;;;18.15;66.16;97677.84;5044409;28;20597;-78
2021/06/04 01:58:55;;;;;;;3.38;3.10;;;;;;;18.14;66.16;97676.28;5054587;28;20519;-78
2021/06/04 02:01:29;;;;;;;3.97;3.35;;;;;;;18.04;66.67;97681.66;5054083;28;20058;-78
2021/06/04 02:03:55;;;;;;;3.67;3.38;;;;;;;18.15;66.67;97675.22;5053740;28;20100;-78
2021/06/04 02:06:21;;;;;;;3.63;3.33;;;;;;;18.19;66.75;97667.53;5034010;28;20040;-78
2021/06/04 02:08:51;;;;;;;3.72;3.42;;;;;;;18.21;66.98;97670.66;5015627;28;20025;-78
2021/06/04 02:11:28;;;;;;;4.20;3.90;;;;;;;18.07;67.74;97664.50;5027730;28;20095;-78
2021/06/04 02:13:54;;;;;;;4.20;3.88;;;;;;;18.28;67.44;97665.84;5033839;28;20025;-78
2021/06/04 02:16:44;;;;;;;4.78;4.38;;;;;;;18.15;68.21;97662.03;5050895;28;20513;-78
2021/06/04 02:19:42;;;;;;;4.20;3.80;;;;;;;18.21;67.55;97662.75;5051517;28;20064;-78
2021/06/04 02:22:26;;;;;;;3.53;3.22;;;;;;;18.33;67.35;97662.34;5051438;28;20049;-78
2021/06/04 02:25:06;;;;;;;4.32;3.92;;;;;;;18.25;67.13;97665.63;5065035;28;20025;-78
2021/06/04 02:27:40;;;;;;;4.22;3.92;;;;;;;18.22;67.43;97660.94;5032859;28;20067;-77
2021/06/04 02:30:22;;;;;;;4.90;4.50;;;;;;;18.20;67.29;97657.75;5031912;28;20476;-77
2021/06/04 02:32:59;;;;;;;4.30;3.90;;;;;;;18.24;67.26;97661.41;5044577;28;20102;-77
2021/06/04 02:35:32;;;;;;;4.43;4.05;;;;;;;18.23;67.23;97657.22;5025835;28;20067;-77
2021/06/04 02:38:09;;;;;;;4.32;3.95;;;;;;;18.25;66.89;97657.69;5050565;28;20040;-78
2021/06/04 02:40:38;;;;;;;3.83;3.53;;;;;;;18.23;66.88;97654.56;5016857;28;20079;-77
2021/06/04 02:43:11;;;;;;;4.03;3.67;;;;;;;18.18;67.11;97658.06;4996767;28;20289;-78
2021/06/04 02:45:41;;;;;;;4.35;3.80;;;;;;;18.22;66.56;97660.94;5011362;28;20075;-78
2021/06/04 02:48:13;;;;;;;3.63;3.33;;;;;;;18.16;66.36;97662.81;5033820;28;20066;-78
2021/06/04 02:50:41;;;;;;;4.00;3.55;;;;;;;18.34;65.65;97659.44;5033623;28;20063;-78
2021/06/04 02:53:32;;;;;;;3.88;3.58;;;;;;;18.06;66.18;97663.75;5013579;28;20051;-78
2021/06/04 02:56:19;;;;;;;3.83;3.53;;;;;;;18.10;66.42;97667.38;5016136;28;20037;-78
2021/06/04 02:58:52;;;;;;;4.00;3.53;;;;;;;18.06;66.90;97663.75;5033590;28;20036;-78
2021/06/04 03:01:18;;;;;;;4.00;3.70;;;;;;;18.11;66.70;97660.25;5027820;28;20037;-78
2021/06/04 03:03:48;;;;;;;4.32;3.92;;;;;;;18.14;66.65;97671.00;5033543;28;20037;-77
2021/06/04 03:06:15;;;;;;;4.85;3.58;;;;;;;18.04;66.71;97663.22;5020054;28;20029;-77
2021/06/04 03:08:43;;;;;;;3.92;3.63;;;;;;;18.05;66.65;97664.78;5035408;28;20025;-77
2021/06/04 03:11:14;;;;;;;4.43;4.03;;;;;;;17.93;66.75;97675.72;5029766;28;20120;-77
2021/06/04 03:13:39;;;;;;;4.97;4.47;;;;;;;17.99;67.00;97668.53;5035969;28;20044;-78
2021/06/04 03:16:18;;;;;;;5.55;4.28;;;;;;;17.95;67.03;97678.84;5044121;28;20379;-78
2021/06/04 03:18:48;;;;;;;4.05;3.67;;;;;;;18.00;66.94;97680.66;5020769;28;20040;-78
2021/06/04 03:21:27;;;;;;;3.70;3.40;;;;;;;18.01;66.34;97670.88;5020697;28;20039;-77
2021/06/04 03:23:53;;;;;;;5.18;3.83;;;;;;;18.03;66.14;97674.84;5003416;28;20099;-78
2021/06/04 03:26:22;;;;;;;3.95;3.55;;;;;;;17.89;66.43;97679.19;5037044;28;20044;-78
2021/06/04 03:28:50;;;;;;;3.85;3.55;;;;;;;17.87;66.61;97676.03;5035743;28;20020;-78
2021/06/04 03:31:18;;;;;;;4.00;3.70;;;;;;;17.88;66.94;97678.41;5018631;28;20051;-78
2021/06/04 03:33:44;;;;;;;4.03;3.72;;;;;;;17.77;67.05;97667.16;5034206;28;20486;-77
2021/06/04 03:36:17;;;;;;;4.15;3.75;;;;;;;17.83;67.33;97675.00;5035210;28;20082;-77
2021/06/04 03:38:44;;;;;;;4.30;3.90;;;;;;;17.95;67.61;97678.84;5034553;28;20111;-78
2021/06/04 03:41:12;;;;;;;5.35;3.88;;;;;;;17.99;67.13;97679.06;5036317;28;20037;-77
2021/06/04 03:43:38;;;;;;;4.28;3.88;;;;;;;18.09;67.01;97680.81;5036322;28;20407;-78
2021/06/04 03:46:04;;;;;;;4.30;3.78;;;;;;;18.08;67.13;97677.41;5037010;28;20035;-77
2021/06/04 03:48:32;;;;;;;4.20;3.80;;;;;;;18.00;67.33;97674.59;5053143;28;20112;-77
2021/06/04 03:51:01;;;;;;;4.53;3.85;;;;;;;18.07;67.44;97681.09;5018138;28;20033;-77
2021/06/04 03:53:31;;;;;;;3.58;3.28;;;;;;;18.13;67.36;97680.00;5018278;28;20032;-78
2021/06/04 03:55:57;;;;;;;4.22;3.92;;;;;;;18.21;67.29;97686.47;5032269;28;20040;-77
2021/06/04 03:58:23;;;;;;;5.07;4.32;;;;;;;18.29;67.58;97682.44;5065731;28;20107;-78
2021/06/04 04:00:56;;;;;;;3.83;3.53;;;;;;;18.26;67.53;97688.28;5002379;28;20033;-77
2021/06/04 04:03:24;;;;;;;4.07;3.67;;;;;;;18.32;67.59;97687.94;5032983;28;20045;-77
2021/06/04 04:05:49;;;;;;;4.38;3.97;;;;;;;18.39;67.63;97687.59;5018381;28;20102;-78
2021/06/04 04:08:17;;;;;;;6.25;4.35;;;;;;;18.39;67.67;97692.88;5051562;28;20475;-77
2021/06/04 04:10:43;;;;;;;4.82;4.32;;;;;;;18.41;67.77;97690.75;5033470;28;20372;-78
2021/06/04 04:13:09;;;;;;;3.60;3.30;;;;;;;18.56;66.88;97700.31;5027573;28;20056;-78
2021/06/04 04:15:35;;;;;;;4.95;4.53;;;;;;;18.60;66.65;97703.16;5028954;28;20060;-78
2021/06/04 04:18:02;;;;;;;6.30;4.60;;;;;;;18.53;67.17;97693.75;5033735;28;20032;-77
2021/06/04 04:20:34;;;;;;;5.55;4.35;;;;;;;18.41;67.50;97695.22;5033242;28;20028;-78
2021/06/04 04:23:00;;;;;;;4.78;4.38;;;;;;;18.58;67.73;97698.19;5034925;28;20116;-78
2021/06/04 04:25:29;;;;;;;5.30;4.38;;;;;;;18.49;67.98;97697.22;5034522;28;20657;-78
2021/06/04 04:27:56;;;;;;;4.90;4.47;;;;;;;18.50;68.02;97699.56;5017518;28;20040;-78
2021/06/04 04:30:22;;;;;;;5.03;4.43;;;;;;;18.60;67.76;97697.91;5001576;28;20057;-79
2021/06/04 04:32:49;;;;;;;6.68;4.53;;;;;;;18.61;67.38;97705.53;5032419;28;20518;-78
2021/06/04 04:35:21;;;;;;;4.68;4.28;;;;;;;18.49;67.87;97703.31;5034065;28;20032;-78
2021/06/04 04:37:47;;;;;;;4.28;3.97;;;;;;;18.66;67.46;97702.81;5021671;28;20040;-78
2021/06/04 04:40:14;;;;;;;5.63;4.60;;;;;;;18.65;67.80;97709.16;5024556;28;20599;-78
2021/06/04 04:42:40;;;;;;;4.78;4.25;;;;;;;18.67;67.89;97708.88;5017727;28;20394;-77
2021/06/04 04:45:11;;;;;;;6.07;5.00;;;;;;;18.60;67.90;97708.44;5022739;28;20037;-78
2021/06/04 04:47:36;;;;;;;5.80;5.30;;;;;;;18.71;68.07;97715.16;5034602;28;20037;-78
2021/06/04 04:50:03;;;;;;;5.65;5.18;;;;;;;18.68;68.02;97715.72;5034294;28;20033;-78
2021/06/04 04:52:29;;;;;;;6.15;5.20;;;;;;;18.78;68.27;97715.59;5008434;28;20463;-77
2021/06/04 04:54:56;;;;;;;5.93;4.90;;;;;;;18.75;68.64;97710.09;5029753;28;20025;-77
2021/06/04 04:57:24;;;;;;;6.72;5.15;;;;;;;18.84;68.41;97721.63;4998959;28;20029;-77
2021/06/04 04:59:49;;;;;;;5.18;4.68;;;;;;;18.90;68.31;97710.72;5033736;28;20033;-77
2021/06/04 05:02:15;;;;;;;5.18;4.57;;;;;;;19.08;68.00;97711.00;4997625;28;20044;-78
2021/06/04 05:04:41;;;;;;;5.35;4.95;;;;;;;19.11;67.66;97707.78;5014410;28;20041;-77
2021/06/04 05:07:07;;;;;;;6.63;5.50;;;;;;;19.09;67.73;97702.78;4993395;28;20068;-77
2021/06/04 05:09:32;;;;;;;5.25;4.75;;;;;;;19.15;67.56;97708.00;5032141;28;20043;-77
2021/06/04 05:11:58;;;;;;;4.78;4.30;;;;;;;19.22;67.77;97714.47;5012833;28;20049;-78
2021/06/04 05:14:24;;;;;;;5.65;4.68;;;;;;;19.21;67.70;97704.19;5050545;28;20090;-77
2021/06/04 05:16:49;;;;;;;4.95;4.55;;;;;;;19.28;67.72;97702.00;4999856;28;20074;-78
2021/06/04 05:19:15;;;;;;;5.43;4.82;;;;;;;19.37;67.85;97699.47;5016715;28;20025;-78
2021/06/04 05:21:40;;;;;;;4.68;4.28;;;;;;;19.49;68.09;97704.31;5015538;28;20036;-78
2021/06/04 05:24:07;;;;;;;4.78;4.38;;;;;;;19.57;67.51;97704.44;5016812;28;20387;-78
2021/06/04 05:26:33;;;;;;;5.13;4.72;;;;;;;19.70;67.12;97704.75;5013367;28;20037;-78
2021/06/04 05:28:58;;;;;;;4.97;4.57;;;;;;;19.73;66.95;97702.31;5032849;28;20476;-78
2021/06/04 05:31:24;;;;;;;5.18;4.70;;;;;;;19.73;67.30;97702.31;5016292;28;20033;-78
2021/06/04 05:33:52;;;;;;;4.95;4.55;;;;;;;19.68;67.48;97699.75;5016921;28;20031;-78
2021/06/04 05:36:26;;;;;;;5.38;4.85;;;;;;;19.57;67.94;97696.50;5013122;28;20044;-78
2021/06/04 05:38:52;;;;;;;5.32;4.90;;;;;;;19.72;67.62;97697.31;5013920;28;20021;-78
2021/06/04 05:41:18;;;;;;;4.70;4.30;;;;;;;19.77;67.86;97697.25;5032521;28;20109;-77
2021/06/04 05:43:45;;;;;;;5.75;5.25;;;;;;;19.80;67.72;97701.97;5016396;28;20083;-77
2021/06/04 05:46:13;;;;;;;6.50;5.90;;;;;;;19.80;67.92;97709.88;5016494;28;20453;-78
2021/06/04 05:48:39;;;;;;;5.88;5.38;;;;;;;19.91;67.65;97708.63;5017025;28;20032;-78
2021/06/04 05:51:09;;;;;;;6.15;5.55;;;;;;;19.92;67.03;97712.84;5028170;28;20459;-78
2021/06/04 05:53:36;;;;;;;5.78;5.28;;;;;;;20.03;67.14;97710.78;4994743;28;20033;-78
2021/06/04 05:56:03;;;;;;;5.57;5.07;;;;;;;20.16;67.21;97704.72;5016277;28;20033;-78
2021/06/04 05:58:29;;;;;;;5.53;4.80;;;;;;;20.26;67.13;97711.69;5032862;28;20562;-78
2021/06/04 06:00:57;;;;;;;5.22;4.82;;;;;;;20.26;66.89;97711.69;5012690;28;20029;-77
2021/06/04 06:03:27;;;;;;;6.25;4.25;;;;;;;20.27;66.82;97718.56;5032844;28;20040;-78
2021/06/04 06:05:53;;;;;;;5.18;4.32;;;;;;;20.45;66.26;97721.38;5032576;28;20025;-78
2021/06/04 06:08:19;;;;;;;5.80;5.07;;;;;;;20.44;66.42;97719.81;5063893;28;20633;-78
2021/06/04 06:10:44;;;;;;;4.70;4.40;;;;;;;20.46;66.23;97725.56;5016606;28;20043;-78
2021/06/04 06:13:10;;;;;;;4.90;4.40;;;;;;;20.52;66.42;97737.63;5034239;28;20029;-77
2021/06/04 06:15:37;;;;;;;4.45;4.05;;;;;;;20.54;66.03;97719.59;5032121;28;20033;-77
2021/06/04 06:18:03;;;;;;;5.30;4.80;;;;;;;20.72;65.91;97733.84;4999179;28;20031;-77
2021/06/04 06:20:34;;;;;;;5.47;4.97;;;;;;;20.66;66.98;97737.66;5031697;28;20032;-77
2021/06/04 06:23:00;;;;;;;5.32;4.82;;;;;;;20.84;67.20;97738.63;5031808;28;20032;-77
2021/06/04 06:25:29;;;;;;;6.07;5.47;;;;;;;20.88;67.16;97745.66;5000225;28;20044;-77
2021/06/04 06:27:56;;;;;;;6.25;5.22;;;;;;;21.04;66.62;97742.66;5017279;28;20058;-77
2021/06/04 06:30:24;;;;;;;5.00;4.57;;;;;;;21.02;66.31;97735.03;5016521;28;20535;-77
2021/06/04 06:32:49;;;;;;;5.43;4.90;;;;;;;21.21;66.46;97745.44;5001069;28;20029;-78
2021/06/04 06:35:41;;;;;;;5.70;5.18;;;;;;;21.12;66.78;97755.97;5016436;28;20171;-77
2021/06/04 06:38:10;;;;;;;6.45;5.20;;;;;;;21.38;66.30;97752.75;5035143;28;20021;-77
2021/06/04 06:40:36;;;;;;;5.53;5.05;;;;;;;21.47;65.89;97756.28;5004680;28;20036;-77
2021/06/04 06:43:02;;;;;;;6.88;6.28;;;;;;;21.51;65.90;97749.31;5019856;28;20032;-77
2021/06/04 06:45:29;;;;;;;5.65;5.15;;;;;;;21.59;65.89;97752.31;5015602;28;20119;-77
2021/06/04 06:47:55;;;;;;;5.25;4.75;;;;;;;21.78;65.69;97750.25;5054412;28;20029;-77
2021/06/04 06:50:23;;;;;;;5.40;5.00;;;;;;;22.06;65.04;97755.38;5054404;28;20079;-77
2021/06/04 06:52:48;;;;;;;5.30;4.70;;;;;;;22.41;64.95;97760.84;5016452;28;20034;-77
2021/06/04 06:55:14;;;;;;;5.07;4.65;;;;;;;22.77;64.26;97762.50;5018939;28;20538;-78
2021/06/04 06:57:40;;;;;;;4.40;4.10;;;;;;;23.04;62.98;97766.00;5035873;28;20025;-78
2021/06/04 07:00:20;;;;;;;3.95;3.55;;;;;;;23.18;62.05;97766.66;5002993;28;20060;-77
2021/06/04 07:02:46;;;;;;;3.25;3.05;;;;;;;23.53;60.00;97764.75;5016964;28;20391;-77
2021/06/04 07:05:12;;;;;;;3.17;2.88;;;;;;;23.66;59.84;97763.00;5024545;28;20082;-77
2021/06/04 07:07:39;;;;;;;4.03;2.80;;;;;;;23.81;58.92;97771.59;4995087;28;20068;-78
2021/06/04 07:10:10;;;;;;;3.47;2.95;;;;;;;23.86;57.58;97769.56;5052143;28;20132;-77
2021/06/04 07:12:35;;;;;;;3.40;3.10;;;;;;;23.93;57.23;97761.13;5032971;28;20033;-77
2021/06/04 07:15:00;;;;;;;3.40;3.10;;;;;;;23.95;56.75;97758.91;5003511;28;20067;-77
2021/06/04 07:17:28;;;;;;;3.30;3.00;;;;;;;23.97;58.08;97759.38;5020334;28;20119;-77
2021/06/04 07:19:53;;;;;;;2.90;2.70;;;;;;;24.01;57.12;97762.97;5036398;28;20064;-77
2021/06/04 07:22:19;;;;;;;3.20;2.90;;;;;;;23.95;57.48;97763.47;5054944;28;20052;-77
2021/06/04 07:24:44;;;;;;;2.97;2.78;;;;;;;24.02;57.67;97763.75;5054665;28;20032;-77
2021/06/04 07:27:10;;;;;;;3.20;2.90;;;;;;;23.98;57.32;97763.59;5004180;28;20124;-77
2021/06/04 07:29:36;;;;;;;2.80;2.65;;;;;;;24.01;56.97;97772.81;5020195;28;20029;-77
2021/06/04 07:32:02;;;;;;;3.45;3.15;;;;;;;24.19;56.34;97768.22;5053661;28;20037;-77
2021/06/04 07:34:28;;;;;;;3.97;3.00;;;;;;;24.25;55.58;97774.94;5019157;28;20412;-77
2021/06/04 07:36:55;;;;;;;3.60;3.30;;;;;;;24.47;55.66;97771.22;5017487;28;20041;-78
2021/06/04 07:39:25;;;;;;;3.55;3.25;;;;;;;24.68;54.90;97768.66;5021968;28;20033;-78
2021/06/04 07:41:51;;;;;;;4.10;3.80;;;;;;;24.97;55.83;97775.06;5029649;28;20072;-77
2021/06/04 07:44:17;;;;;;;4.47;3.58;;;;;;;25.29;55.01;97772.81;5018759;28;20497;-77
2021/06/04 07:46:44;;;;;;;3.72;3.50;;;;;;;25.65;55.26;97769.50;5051132;28;20144;-77
2021/06/04 07:49:09;;;;;;;3.85;3.55;;;;;;;26.12;53.22;97771.09;5014913;28;20045;-77
2021/06/04 07:51:39;;;;;;;4.15;3.85;;;;;;;26.47;52.80;97767.97;5001975;28;20037;-77
2021/06/04 07:54:07;;;;;;;2.55;2.35;;;;;;;27.01;47.90;97764.28;5035612;28;20396;-78
2021/06/04 07:56:32;;;;;;;3.22;2.60;;;;;;;27.40;48.81;97773.44;5018549;28;20025;-78
2021/06/04 07:58:59;;;;;;;3.38;3.17;;;;;;;27.58;49.28;97767.78;5021969;28;20025;-77
2021/06/04 08:01:25;;;;;;;3.38;3.17;;;;;;;28.11;47.36;97781.00;5035174;28;20037;-78
2021/06/04 08:03:50;;;;;;;2.97;2.72;;;;;;;28.32;46.84;97767.34;5034566;28;20044;-78
2021/06/04 08:06:18;;;;;;;2.90;2.60;;;;;;;28.42;45.09;97772.16;5019508;28;20033;-78
2021/06/04 08:08:44;;;;;;;2.53;2.33;;;;;;;28.68;46.01;97776.22;5035414;28;20025;-78
2021/06/04 08:11:15;;;;;;;2.10;2.00;;;;;;;28.58;44.50;97772.97;5017878;28;20083;-78
2021/06/04 08:13:40;;;;;;;2.72;2.30;;;;;;;29.09;44.46;97777.47;5019296;28;20025;-78
2021/06/04 08:16:11;;;;;;;2.60;2.40;;;;;;;29.09;44.63;97771.34;5053213;28;20088;-78
2021/06/04 08:18:43;;;;;;;3.00;2.65;;;;;;;29.49;43.16;97781.75;5017966;28;20025;-78
2021/06/04 08:21:14;;;;;;;2.40;2.28;;;;;;;29.64;41.74;97765.91;5047372;28;20100;-77
2021/06/04 08:23:43;;;;;;;2.25;1.85;;;;;;;29.87;40.27;97761.38;5032902;28;20037;-77
2021/06/04 08:26:10;;;;;;;3.13;2.90;;;;;;;29.91;41.13;97764.09;4999852;28;20479;-78
2021/06/04 08:28:36;;;;;;;2.67;2.47;;;;;;;29.97;40.65;97760.00;4999223;28;20024;-77
2021/06/04 08:31:02;;;;;;;2.63;2.42;;;;;;;30.08;38.72;97756.72;5032744;28;20434;-76
2021/06/04 08:33:36;;;;;;;2.53;2.33;;;;;;;30.08;39.00;97759.41;5015116;28;20025;-78
2021/06/04 08:36:04;;;;;;;2.87;2.70;;;;;;;30.22;40.74;97762.31;5016828;28;20025;-77
2021/06/04 08:38:32;;;;;;;2.42;2.33;;;;;;;30.42;38.83;97754.97;5016674;28;20112;-78
2021/06/04 08:41:16;;;;;;;2.78;2.60;;;;;;;30.46;38.39;97752.31;5015169;28;20103;-77
2021/06/04 08:44:15;;;;;;;2.80;2.50;;;;;;;30.42;38.68;97763.03;5044150;28;20642;-77
2021/06/04 08:46:52;;;;;;;2.88;2.53;;;;;;;30.53;38.21;97752.44;5029645;28;20121;-78
2021/06/04 08:49:31;;;;;;;3.13;2.88;;;;;;;30.90;38.24;97751.78;5013328;28;20033;-78
2021/06/04 08:52:20;;;;;;;2.60;2.40;;;;;;;30.78;37.15;97758.16;4995267;28;20537;-78
2021/06/04 08:55:14;;;;;;;2.80;2.45;;;;;;;31.04;38.37;97762.72;4995884;28;20345;-78
2021/06/04 08:58:16;;;;;;;2.70;2.45;;;;;;;31.27;37.58;97756.47;5032862;28;20036;-78
2021/06/04 09:00:56;;;;;;;2.42;2.33;;;;;;;31.15;36.63;97754.78;5049871;28;20376;-78
2021/06/04 09:03:26;;;;;;;1.98;1.88;;;;;;;31.51;36.13;97756.00;5029387;28;20261;-78
2021/06/04 09:05:56;;;;;;;3.25;2.92;;;;;;;31.21;38.46;97753.31;5048725;28;20373;-77
2021/06/04 09:08:27;;;;;;;2.45;2.20;;;;;;;31.14;36.63;97748.63;5016039;28;20029;-78
2021/06/04 09:11:20;;;;;;;2.67;2.47;;;;;;;31.33;35.93;97763.84;5028793;28;20475;-77
2021/06/04 09:13:46;;;;;;;2.80;2.60;;;;;;;31.86;35.53;97743.25;5009524;28;20129;-78
2021/06/04 09:16:23;;;;;;;2.53;2.33;;;;;;;31.91;34.19;97750.97;5045104;28;20095;-78
2021/06/04 09:18:58;;;;;;;2.72;2.35;;;;;;;31.99;32.61;97747.19;5032415;28;20025;-78
2021/06/04 09:21:30;;;;;;;2.80;2.38;;;;;;;32.01;32.88;97750.28;5015368;28;20495;-78
2021/06/04 09:24:00;;;;;;;2.47;2.15;;;;;;;32.01;32.95;97744.91;4995401;28;20425;-78
2021/06/04 09:26:28;;;;;;;2.80;2.45;;;;;;;32.03;33.45;97748.00;5031100;28;20033;-78
2021/06/04 09:29:03;;;;;;;3.45;2.50;;;;;;;31.80;34.15;97750.09;5015764;28;20504;-78
2021/06/04 09:31:57;;;;;;;3.30;2.40;;;;;;;32.17;33.96;97746.59;5031308;28;20388;-78
2021/06/04 09:34:30;;;;;;;3.45;2.63;;;;;;;32.55;32.12;97753.38;5017071;28;20021;-78
2021/06/04 09:36:57;;;;;;;3.22;2.60;;;;;;;32.62;32.63;97763.47;5045289;28;20059;-78
2021/06/04 09:39:43;;;;;;;3.67;2.60;;;;;;;32.64;32.30;97747.69;4996179;28;20037;-78
2021/06/04 09:42:21;;;;;;;3.33;3.03;;;;;;;32.65;31.88;97752.69;5006314;28;20030;-78
2021/06/04 09:44:53;;;;;;;4.38;3.08;;;;;;;32.70;32.37;97745.41;5027624;28;20040;-78
2021/06/04 09:47:40;;;;;;;2.97;2.72;;;;;;;32.28;35.66;97742.81;5032906;28;20100;-78
2021/06/04 09:50:18;;;;;;;3.30;3.10;;;;;;;32.44;34.31;97744.44;4999703;28;20021;-78
2021/06/04 09:52:45;;;;;;;3.55;3.35;;;;;;;32.76;34.07;97744.66;5031188;28;20028;-78
2021/06/04 09:55:16;;;;;;;3.47;3.10;;;;;;;32.57;33.94;97748.38;5032284;28;20035;-78
2021/06/04 09:58:00;;;;;;;3.75;2.60;;;;;;;32.40;33.74;97738.28;5045232;28;20029;-78
2021/06/04 10:00:30;;;;;;;3.35;3.05;;;;;;;32.28;32.96;97742.81;5027882;28;20040;-79
2021/06/04 10:03:07;;;;;;;2.92;2.45;;;;;;;32.01;34.26;97736.84;5032795;28;20040;-78
2021/06/04 10:05:38;;;;;;;3.22;2.65;;;;;;;32.05;33.73;97739.53;5025301;28;20040;-79
2021/06/04 10:08:15;;;;;;;3.22;2.92;;;;;;;31.68;35.40;97729.59;5032750;28;20442;-78
2021/06/04 10:10:41;;;;;;;2.80;2.60;;;;;;;31.67;34.39;97731.53;5033382;28;20060;-78
2021/06/04 10:13:14;;;;;;;3.17;2.83;;;;;;;31.77;34.46;97734.69;5027645;28;20443;-78
2021/06/04 10:15:45;;;;;;;5.37;2.33;;;;;;;31.68;33.48;97732.31;5033115;28;20044;-78
2021/06/04 10:18:38;;;;;;;2.83;2.50;;;;;;;31.38;33.74;97725.06;4996241;28;20025;-78
2021/06/04 10:21:25;;;;;;;2.50;2.30;;;;;;;31.24;34.10;97724.91;5010332;28;20067;-78
2021/06/04 10:23:53;;;;;;;4.38;2.55;;;;;;;31.28;33.96;97725.72;5032676;28;20059;-78
2021/06/04 10:26:26;;;;;;;4.18;3.05;;;;;;;31.18;33.42;97714.47;5016810;28;20078;-78
2021/06/04 10:28:56;;;;;;;3.10;2.67;;;;;;;31.24;33.33;97719.53;5000293;28;20021;-78
2021/06/04 10:31:32;;;;;;;3.03;2.53;;;;;;;31.30;34.04;97708.06;5016578;28;20037;-78
2021/06/04 10:34:26;;;;;;;2.53;2.33;;;;;;;31.57;33.66;97709.91;5013309;28;20539;-78
2021/06/04 10:36:54;;;;;;;3.28;2.45;;;;;;;31.48;33.87;97710.94;5001464;28;20561;-78
2021/06/04 10:39:29;;;;;;;3.53;2.47;;;;;;;31.41;35.63;97702.00;5032629;28;20029;-78
2021/06/04 10:42:07;;;;;;;3.88;2.70;;;;;;;31.30;35.65;97707.31;5015495;28;20041;-78
2021/06/04 10:44:42;;;;;;;3.85;2.83;;;;;;;31.31;35.74;97706.16;5012141;28;20104;-79
2021/06/04 10:47:22;;;;;;;2.60;2.40;;;;;;;31.27;33.56;97697.28;5000022;28;20036;-78
2021/06/04 10:50:10;;;;;;;2.80;2.60;;;;;;;31.39;34.64;97693.53;5014207;28;20022;-78
2021/06/04 10:52:44;;;;;;;4.13;2.42;;;;;;;31.79;33.05;97689.31;5031243;28;20033;-78
2021/06/04 10:55:15;;;;;;;;;;;;;;;31.86;32.98;97681.31;5033072;28;20048;-78
2021/06/04 10:57:52;;;;;;;2.53;2.22;;;;;;;32.12;32.75;97677.66;5015644;28;19980;-78
2021/06/04 11:00:22;;;;;;;3.85;2.72;;;;;;;32.11;32.05;97670.72;5013296;28;20036;-78
2021/06/04 11:02:59;;;;;;;3.38;2.92;;;;;;;32.31;33.16;97670.47;5015147;28;20048;-78
2021/06/04 11:06:01;;;;;;;4.70;3.30;;;;;;;32.41;33.03;97670.50;5013886;28;20094;-78
2021/06/04 11:08:42;;;;;;;3.33;2.38;;;;;;;32.19;33.03;97675.00;4965401;28;20454;-78
2021/06/04 11:11:40;;;;;;;3.42;3.15;;;;;;;31.52;33.29;97674.09;5015880;28;20607;-78
2021/06/04 11:14:35;;;;;;;3.03;2.83;;;;;;;30.92;35.74;97684.97;5043762;28;20032;-78
2021/06/04 11:17:23;;;;;;;3.03;2.72;;;;;;;30.57;37.62;97678.78;5027945;28;20040;-78
2021/06/04 11:19:53;;;;;;;3.25;3.00;;;;;;;30.03;37.87;97669.94;5016007;28;20653;-79
2021/06/04 11:22:37;;;;;;;5.25;2.92;;;;;;;29.64;40.02;97667.38;5030581;28;20033;-78
2021/06/04 11:25:07;;;;;;;3.90;3.13;;;;;;;29.54;40.35;97678.69;5033401;28;20480;-78
2021/06/04 11:27:44;;;;;;;3.65;3.30;;;;;;;29.24;41.81;97681.25;5046718;28;20025;-78
2021/06/04 11:30:36;;;;;;;3.53;3.33;;;;;;;29.02;41.45;97688.84;5034712;28;20036;-78
2021/06/04 11:33:19;;;;;;;3.53;3.22;;;;;;;28.87;41.83;97693.16;5030638;28;20041;-78
2021/06/04 11:35:50;;;;;;;2.90;2.70;;;;;;;28.62;41.55;97689.19;5034122;28;20033;-78
2021/06/04 11:38:22;;;;;;;4.10;2.78;;;;;;;28.40;42.29;97688.72;5018470;28;20036;-78
2021/06/04 11:40:51;;;;;;;2.90;2.70;;;;;;;28.37;42.06;97678.69;5049689;28;20341;-78
2021/06/04 11:43:30;;;;;;;2.97;2.78;;;;;;;28.27;42.07;97676.56;5002221;28;20074;-78
2021/06/04 11:46:35;;;;;;;3.83;2.60;;;;;;;27.98;43.95;97676.69;5016864;28;20025;-78
2021/06/04 11:49:14;;;;;;;3.13;2.83;;;;;;;27.90;44.70;97666.91;4919998;29;20082;-78
2021/06/04 11:51:53;;;;;;;3.08;2.63;;;;;;;27.88;43.87;97663.00;4935056;29;20049;-78
2021/06/04 11:54:24;;;;;;;3.08;2.20;;;;;;;27.78;42.85;97659.75;4930967;29;20035;-77
2021/06/04 11:56:54;;;;;;;3.75;2.70;;;;;;;27.82;43.39;97663.28;4949952;29;20043;-78